sensor_id;sensor_type;location;lat;lon;timestamp;P1;durP1;ratioP1;P2;durP2;ratioP2
78308;SDS011;67566;42.022;21.356;2023-04-25T00:01:58;13.00;;;11.27;;
78308;SDS011;67566;42.022;21.356;2023-04-25T00:04:24;13.90;;;11.65;;
78308;SDS011;67566;42.022;21.356;2023-04-25T00:06:52;14.38;;;10.82;;
78308;SDS011;67566;42.022;21.356;2023-04-25T00:09:18;16.10;;;12.35;;
78308;SDS011;67566;42.022;21.356;2023-04-25T00:11:43;13.98;;;11.40;;
78308;SDS011;67566;42.022;21.356;2023-04-25T00:14:09;16.38;;;12.25;;
78308;SDS011;67566;42.022;21.356;2023-04-25T00:16:35;14.90;;;12.05;;
78308;SDS011;67566;42.022;21.356;2023-04-25T00:19:01;16.25;;;12.25;;
78308;SDS011;67566;42.022;21.356;2023-04-25T00:21:27;12.60;;;9.85;;
78308;SDS011;67566;42.022;21.356;2023-04-25T00:23:53;16.70;;;12.43;;
78308;SDS011;67566;42.022;21.356;2023-04-25T00:26:19;16.17;;;12.98;;
78308;SDS011;67566;42.022;21.356;2023-04-25T00:28:46;16.88;;;12.30;;
78308;SDS011;67566;42.022;21.356;2023-04-25T00:31:12;28.77;;;19.42;;
78308;SDS011;67566;42.022;21.356;2023-04-25T00:33:37;15.82;;;11.77;;
78308;SDS011;67566;42.022;21.356;2023-04-25T00:36:03;12.23;;;10.05;;
78308;SDS011;67566;42.022;21.356;2023-04-25T00:38:29;14.23;;;10.65;;
78308;SDS011;67566;42.022;21.356;2023-04-25T00:40:54;16.23;;;10.73;;
78308;SDS011;67566;42.022;21.356;2023-04-25T00:43:20;13.65;;;10.35;;
78308;SDS011;67566;42.022;21.356;2023-04-25T00:45:46;12.70;;;10.10;;
78308;SDS011;67566;42.022;21.356;2023-04-25T00:48:16;16.05;;;12.15;;
78308;SDS011;67566;42.022;21.356;2023-04-25T00:50:43;14.13;;;10.95;;
78308;SDS011;67566;42.022;21.356;2023-04-25T00:53:19;13.52;;;10.30;;
78308;SDS011;67566;42.022;21.356;2023-04-25T00:55:49;15.02;;;12.23;;
78308;SDS011;67566;42.022;21.356;2023-04-25T01:00:47;14.77;;;11.13;;
78308;SDS011;67566;42.022;21.356;2023-04-25T01:03:15;13.98;;;10.73;;
78308;SDS011;67566;42.022;21.356;2023-04-25T01:05:42;15.48;;;13.00;;
78308;SDS011;67566;42.022;21.356;2023-04-25T01:08:08;17.08;;;12.10;;
78308;SDS011;67566;42.022;21.356;2023-04-25T01:10:34;16.60;;;11.50;;
78308;SDS011;67566;42.022;21.356;2023-04-25T01:13:00;16.25;;;12.77;;
78308;SDS011;67566;42.022;21.356;2023-04-25T01:15:26;14.27;;;10.57;;
78308;SDS011;67566;42.022;21.356;2023-04-25T01:17:51;15.75;;;11.40;;
78308;SDS011;67566;42.022;21.356;2023-04-25T01:20:18;14.95;;;12.35;;
78308;SDS011;67566;42.022;21.356;2023-04-25T01:22:47;16.90;;;13.15;;
78308;SDS011;67566;42.022;21.356;2023-04-25T01:25:12;16.00;;;12.80;;
78308;SDS011;67566;42.022;21.356;2023-04-25T01:27:38;15.00;;;11.27;;
78308;SDS011;67566;42.022;21.356;2023-04-25T01:30:05;18.17;;;13.20;;
78308;SDS011;67566;42.022;21.356;2023-04-25T01:32:31;14.85;;;11.10;;
78308;SDS011;67566;42.022;21.356;2023-04-25T01:35:04;14.35;;;10.70;;
78308;SDS011;67566;42.022;21.356;2023-04-25T01:37:34;18.50;;;11.98;;
78308;SDS011;67566;42.022;21.356;2023-04-25T01:40:07;22.90;;;15.55;;
78308;SDS011;67566;42.022;21.356;2023-04-25T01:42:37;18.08;;;13.50;;
78308;SDS011;67566;42.022;21.356;2023-04-25T01:45:04;23.23;;;15.15;;
78308;SDS011;67566;42.022;21.356;2023-04-25T01:47:30;14.77;;;11.05;;
78308;SDS011;67566;42.022;21.356;2023-04-25T01:49:56;16.67;;;11.18;;
78308;SDS011;67566;42.022;21.356;2023-04-25T01:52:21;17.33;;;12.77;;
78308;SDS011;67566;42.022;21.356;2023-04-25T01:54:47;19.48;;;13.60;;
78308;SDS011;67566;42.022;21.356;2023-04-25T01:57:13;21.35;;;14.35;;
78308;SDS011;67566;42.022;21.356;2023-04-25T01:59:38;16.45;;;11.70;;
78308;SDS011;67566;42.022;21.356;2023-04-25T02:02:04;17.88;;;11.85;;
78308;SDS011;67566;42.022;21.356;2023-04-25T02:04:30;14.68;;;11.13;;
78308;SDS011;67566;42.022;21.356;2023-04-25T02:06:56;14.13;;;11.23;;
78308;SDS011;67566;42.022;21.356;2023-04-25T02:09:22;21.15;;;11.55;;
78308;SDS011;67566;42.022;21.356;2023-04-25T02:11:47;16.88;;;13.30;;
78308;SDS011;67566;42.022;21.356;2023-04-25T02:14:13;16.55;;;11.38;;
78308;SDS011;67566;42.022;21.356;2023-04-25T02:16:38;13.60;;;9.48;;
78308;SDS011;67566;42.022;21.356;2023-04-25T02:19:04;18.02;;;12.75;;
78308;SDS011;67566;42.022;21.356;2023-04-25T02:21:30;15.93;;;12.32;;
78308;SDS011;67566;42.022;21.356;2023-04-25T02:23:56;17.20;;;12.73;;
78308;SDS011;67566;42.022;21.356;2023-04-25T02:26:22;20.00;;;14.85;;
78308;SDS011;67566;42.022;21.356;2023-04-25T02:28:49;16.83;;;12.43;;
78308;SDS011;67566;42.022;21.356;2023-04-25T02:31:15;18.88;;;13.07;;
78308;SDS011;67566;42.022;21.356;2023-04-25T02:33:41;17.50;;;12.68;;
78308;SDS011;67566;42.022;21.356;2023-04-25T02:36:07;16.77;;;11.75;;
78308;SDS011;67566;42.022;21.356;2023-04-25T02:38:32;18.40;;;12.15;;
78308;SDS011;67566;42.022;21.356;2023-04-25T02:40:58;17.10;;;12.95;;
78308;SDS011;67566;42.022;21.356;2023-04-25T02:43:23;20.05;;;14.73;;
78308;SDS011;67566;42.022;21.356;2023-04-25T02:45:49;15.18;;;11.43;;
78308;SDS011;67566;42.022;21.356;2023-04-25T02:48:14;16.33;;;12.02;;
78308;SDS011;67566;42.022;21.356;2023-04-25T02:50:40;17.77;;;12.90;;
78308;SDS011;67566;42.022;21.356;2023-04-25T02:53:05;18.02;;;13.75;;
78308;SDS011;67566;42.022;21.356;2023-04-25T02:55:31;14.75;;;12.07;;
78308;SDS011;67566;42.022;21.356;2023-04-25T02:57:56;17.13;;;12.73;;
78308;SDS011;67566;42.022;21.356;2023-04-25T03:00:22;19.50;;;13.60;;
78308;SDS011;67566;42.022;21.356;2023-04-25T03:02:47;16.17;;;12.52;;
78308;SDS011;67566;42.022;21.356;2023-04-25T03:05:13;15.88;;;13.43;;
78308;SDS011;67566;42.022;21.356;2023-04-25T03:07:39;16.50;;;11.82;;
78308;SDS011;67566;42.022;21.356;2023-04-25T03:10:05;16.92;;;12.88;;
78308;SDS011;67566;42.022;21.356;2023-04-25T03:12:31;15.68;;;13.10;;
78308;SDS011;67566;42.022;21.356;2023-04-25T03:14:57;16.92;;;13.38;;
78308;SDS011;67566;42.022;21.356;2023-04-25T03:17:22;16.27;;;12.77;;
78308;SDS011;67566;42.022;21.356;2023-04-25T03:19:48;17.02;;;12.05;;
78308;SDS011;67566;42.022;21.356;2023-04-25T03:22:13;15.00;;;12.20;;
78308;SDS011;67566;42.022;21.356;2023-04-25T03:24:39;18.05;;;13.15;;
78308;SDS011;67566;42.022;21.356;2023-04-25T03:27:05;16.13;;;13.05;;
78308;SDS011;67566;42.022;21.356;2023-04-25T03:29:30;13.45;;;10.63;;
78308;SDS011;67566;42.022;21.356;2023-04-25T03:31:56;19.05;;;16.05;;
78308;SDS011;67566;42.022;21.356;2023-04-25T03:34:21;27.10;;;21.40;;
78308;SDS011;67566;42.022;21.356;2023-04-25T03:36:47;19.42;;;15.77;;
78308;SDS011;67566;42.022;21.356;2023-04-25T03:39:12;20.77;;;15.57;;
78308;SDS011;67566;42.022;21.356;2023-04-25T03:41:38;17.15;;;14.13;;
78308;SDS011;67566;42.022;21.356;2023-04-25T03:44:03;24.42;;;19.73;;
78308;SDS011;67566;42.022;21.356;2023-04-25T03:46:29;21.42;;;16.50;;
78308;SDS011;67566;42.022;21.356;2023-04-25T03:48:54;17.38;;;12.93;;
78308;SDS011;67566;42.022;21.356;2023-04-25T03:51:20;16.88;;;13.57;;
78308;SDS011;67566;42.022;21.356;2023-04-25T03:53:45;34.08;;;24.45;;
78308;SDS011;67566;42.022;21.356;2023-04-25T03:56:11;47.15;;;32.15;;
78308;SDS011;67566;42.022;21.356;2023-04-25T03:58:36;38.42;;;27.30;;
78308;SDS011;67566;42.022;21.356;2023-04-25T04:01:02;31.05;;;24.42;;
78308;SDS011;67566;42.022;21.356;2023-04-25T04:03:33;26.67;;;20.65;;
78308;SDS011;67566;42.022;21.356;2023-04-25T04:06:01;21.10;;;17.08;;
78308;SDS011;67566;42.022;21.356;2023-04-25T04:08:30;21.98;;;16.58;;
78308;SDS011;67566;42.022;21.356;2023-04-25T04:10:57;16.10;;;12.68;;
78308;SDS011;67566;42.022;21.356;2023-04-25T04:13:23;17.10;;;13.57;;
78308;SDS011;67566;42.022;21.356;2023-04-25T04:15:50;16.02;;;12.38;;
78308;SDS011;67566;42.022;21.356;2023-04-25T04:18:15;14.43;;;11.45;;
78308;SDS011;67566;42.022;21.356;2023-04-25T04:20:41;15.90;;;11.90;;
78308;SDS011;67566;42.022;21.356;2023-04-25T04:23:06;16.90;;;13.02;;
78308;SDS011;67566;42.022;21.356;2023-04-25T04:25:32;18.33;;;14.15;;
78308;SDS011;67566;42.022;21.356;2023-04-25T04:27:57;19.20;;;13.50;;
78308;SDS011;67566;42.022;21.356;2023-04-25T04:30:23;31.25;;;21.63;;
78308;SDS011;67566;42.022;21.356;2023-04-25T04:32:51;22.95;;;19.83;;
78308;SDS011;67566;42.022;21.356;2023-04-25T04:35:16;17.27;;;13.32;;
78308;SDS011;67566;42.022;21.356;2023-04-25T04:37:42;13.93;;;12.25;;
78308;SDS011;67566;42.022;21.356;2023-04-25T04:40:08;16.33;;;13.00;;
78308;SDS011;67566;42.022;21.356;2023-04-25T04:42:34;16.42;;;11.57;;
78308;SDS011;67566;42.022;21.356;2023-04-25T04:45:01;15.68;;;11.80;;
78308;SDS011;67566;42.022;21.356;2023-04-25T04:47:27;18.20;;;12.75;;
78308;SDS011;67566;42.022;21.356;2023-04-25T04:49:56;13.55;;;11.90;;
78308;SDS011;67566;42.022;21.356;2023-04-25T04:52:22;13.80;;;11.27;;
78308;SDS011;67566;42.022;21.356;2023-04-25T04:54:47;13.35;;;11.05;;
78308;SDS011;67566;42.022;21.356;2023-04-25T04:57:13;12.18;;;9.95;;
78308;SDS011;67566;42.022;21.356;2023-04-25T04:59:38;10.73;;;9.02;;
78308;SDS011;67566;42.022;21.356;2023-04-25T05:02:04;11.82;;;10.15;;
78308;SDS011;67566;42.022;21.356;2023-04-25T05:04:29;11.15;;;9.07;;
78308;SDS011;67566;42.022;21.356;2023-04-25T05:06:55;11.95;;;9.73;;
78308;SDS011;67566;42.022;21.356;2023-04-25T05:09:20;11.40;;;8.70;;
78308;SDS011;67566;42.022;21.356;2023-04-25T05:11:50;10.30;;;9.23;;
78308;SDS011;67566;42.022;21.356;2023-04-25T05:14:16;10.68;;;9.07;;
78308;SDS011;67566;42.022;21.356;2023-04-25T05:16:42;10.32;;;8.77;;
78308;SDS011;67566;42.022;21.356;2023-04-25T05:19:08;12.27;;;8.35;;
78308;SDS011;67566;42.022;21.356;2023-04-25T05:21:34;10.73;;;9.63;;
78308;SDS011;67566;42.022;21.356;2023-04-25T05:23:59;12.25;;;10.32;;
78308;SDS011;67566;42.022;21.356;2023-04-25T05:26:25;11.75;;;9.70;;
78308;SDS011;67566;42.022;21.356;2023-04-25T05:28:51;13.70;;;9.52;;
78308;SDS011;67566;42.022;21.356;2023-04-25T05:31:16;13.02;;;11.52;;
78308;SDS011;67566;42.022;21.356;2023-04-25T05:33:42;11.70;;;10.50;;
78308;SDS011;67566;42.022;21.356;2023-04-25T05:36:07;11.60;;;10.40;;
78308;SDS011;67566;42.022;21.356;2023-04-25T05:38:33;12.65;;;11.35;;
78308;SDS011;67566;42.022;21.356;2023-04-25T05:40:58;11.55;;;9.52;;
78308;SDS011;67566;42.022;21.356;2023-04-25T05:43:24;9.95;;;8.95;;
78308;SDS011;67566;42.022;21.356;2023-04-25T05:45:50;12.35;;;9.73;;
78308;SDS011;67566;42.022;21.356;2023-04-25T05:48:15;9.88;;;8.48;;
78308;SDS011;67566;42.022;21.356;2023-04-25T05:50:40;11.00;;;9.88;;
78308;SDS011;67566;42.022;21.356;2023-04-25T05:53:06;10.27;;;9.18;;
78308;SDS011;67566;42.022;21.356;2023-04-25T05:55:31;13.95;;;10.88;;
78308;SDS011;67566;42.022;21.356;2023-04-25T05:57:57;13.13;;;11.55;;
78308;SDS011;67566;42.022;21.356;2023-04-25T06:00:22;11.82;;;10.63;;
78308;SDS011;67566;42.022;21.356;2023-04-25T06:02:48;11.48;;;10.35;;
78308;SDS011;67566;42.022;21.356;2023-04-25T06:05:14;10.63;;;9.50;;
78308;SDS011;67566;42.022;21.356;2023-04-25T06:07:40;9.85;;;8.82;;
78308;SDS011;67566;42.022;21.356;2023-04-25T06:10:05;7.30;;;6.53;;
78308;SDS011;67566;42.022;21.356;2023-04-25T06:12:32;11.57;;;10.13;;
78308;SDS011;67566;42.022;21.356;2023-04-25T06:14:58;8.98;;;7.68;;
78308;SDS011;67566;42.022;21.356;2023-04-25T06:17:24;12.25;;;8.93;;
78308;SDS011;67566;42.022;21.356;2023-04-25T06:19:49;9.00;;;6.75;;
78308;SDS011;67566;42.022;21.356;2023-04-25T06:22:15;7.85;;;6.50;;
78308;SDS011;67566;42.022;21.356;2023-04-25T06:24:40;7.53;;;6.72;;
78308;SDS011;67566;42.022;21.356;2023-04-25T06:27:06;7.53;;;6.55;;
78308;SDS011;67566;42.022;21.356;2023-04-25T06:29:31;8.65;;;7.70;;
78308;SDS011;67566;42.022;21.356;2023-04-25T06:31:57;9.93;;;8.00;;
78308;SDS011;67566;42.022;21.356;2023-04-25T06:34:22;12.73;;;9.10;;
78308;SDS011;67566;42.022;21.356;2023-04-25T06:36:48;8.13;;;7.38;;
78308;SDS011;67566;42.022;21.356;2023-04-25T06:39:13;6.78;;;6.07;;
78308;SDS011;67566;42.022;21.356;2023-04-25T06:41:39;8.48;;;6.15;;
78308;SDS011;67566;42.022;21.356;2023-04-25T06:44:04;7.78;;;6.95;;
78308;SDS011;67566;42.022;21.356;2023-04-25T06:46:30;10.40;;;9.25;;
78308;SDS011;67566;42.022;21.356;2023-04-25T06:48:55;12.07;;;10.07;;
78308;SDS011;67566;42.022;21.356;2023-04-25T06:51:21;13.40;;;11.85;;
78308;SDS011;67566;42.022;21.356;2023-04-25T06:53:46;15.32;;;13.88;;
78308;SDS011;67566;42.022;21.356;2023-04-25T06:56:12;16.95;;;15.15;;
78308;SDS011;67566;42.022;21.356;2023-04-25T06:58:37;17.10;;;15.27;;
78308;SDS011;67566;42.022;21.356;2023-04-25T07:01:03;18.58;;;16.30;;
78308;SDS011;67566;42.022;21.356;2023-04-25T07:03:28;19.17;;;17.23;;
78308;SDS011;67566;42.022;21.356;2023-04-25T07:05:53;15.95;;;13.63;;
78308;SDS011;67566;42.022;21.356;2023-04-25T07:08:19;17.33;;;15.13;;
78308;SDS011;67566;42.022;21.356;2023-04-25T07:10:46;20.33;;;17.10;;
78308;SDS011;67566;42.022;21.356;2023-04-25T07:13:11;17.77;;;15.18;;
78308;SDS011;67566;42.022;21.356;2023-04-25T07:15:37;17.15;;;15.13;;
78308;SDS011;67566;42.022;21.356;2023-04-25T07:18:02;21.02;;;17.48;;
78308;SDS011;67566;42.022;21.356;2023-04-25T07:20:28;17.67;;;15.95;;
78308;SDS011;67566;42.022;21.356;2023-04-25T07:22:55;15.65;;;14.00;;
78308;SDS011;67566;42.022;21.356;2023-04-25T07:25:21;16.05;;;14.35;;
78308;SDS011;67566;42.022;21.356;2023-04-25T07:27:47;15.27;;;12.88;;
78308;SDS011;67566;42.022;21.356;2023-04-25T07:30:12;15.10;;;13.07;;
78308;SDS011;67566;42.022;21.356;2023-04-25T07:32:38;16.40;;;12.93;;
78308;SDS011;67566;42.022;21.356;2023-04-25T07:35:04;16.33;;;13.15;;
78308;SDS011;67566;42.022;21.356;2023-04-25T07:37:32;15.13;;;11.88;;
78308;SDS011;67566;42.022;21.356;2023-04-25T07:39:57;15.73;;;11.05;;
78308;SDS011;67566;42.022;21.356;2023-04-25T07:42:23;15.63;;;12.13;;
78308;SDS011;67566;42.022;21.356;2023-04-25T07:44:48;14.68;;;13.13;;
78308;SDS011;67566;42.022;21.356;2023-04-25T07:47:15;17.80;;;12.25;;
78308;SDS011;67566;42.022;21.356;2023-04-25T07:49:40;20.50;;;13.00;;
78308;SDS011;67566;42.022;21.356;2023-04-25T07:52:06;15.02;;;12.15;;
78308;SDS011;67566;42.022;21.356;2023-04-25T07:54:31;18.20;;;12.80;;
78308;SDS011;67566;42.022;21.356;2023-04-25T07:56:57;14.43;;;12.05;;
78308;SDS011;67566;42.022;21.356;2023-04-25T07:59:23;15.85;;;13.50;;
78308;SDS011;67566;42.022;21.356;2023-04-25T08:01:49;15.60;;;13.27;;
78308;SDS011;67566;42.022;21.356;2023-04-25T08:04:15;14.88;;;11.95;;
78308;SDS011;67566;42.022;21.356;2023-04-25T08:06:41;12.57;;;9.57;;
78308;SDS011;67566;42.022;21.356;2023-04-25T08:09:06;10.15;;;8.93;;
78308;SDS011;67566;42.022;21.356;2023-04-25T08:11:34;18.85;;;14.18;;
78308;SDS011;67566;42.022;21.356;2023-04-25T08:14:00;15.07;;;10.88;;
78308;SDS011;67566;42.022;21.356;2023-04-25T08:16:25;12.45;;;9.68;;
78308;SDS011;67566;42.022;21.356;2023-04-25T08:18:51;15.80;;;10.50;;
78308;SDS011;67566;42.022;21.356;2023-04-25T08:21:16;17.83;;;9.07;;
78308;SDS011;67566;42.022;21.356;2023-04-25T08:23:42;10.38;;;8.23;;
78308;SDS011;67566;42.022;21.356;2023-04-25T08:26:07;14.13;;;9.32;;
78308;SDS011;67566;42.022;21.356;2023-04-25T08:28:33;10.32;;;8.32;;
78308;SDS011;67566;42.022;21.356;2023-04-25T08:30:58;10.27;;;7.38;;
78308;SDS011;67566;42.022;21.356;2023-04-25T08:33:24;10.93;;;7.65;;
78308;SDS011;67566;42.022;21.356;2023-04-25T08:35:50;10.18;;;8.32;;
78308;SDS011;67566;42.022;21.356;2023-04-25T08:38:16;7.85;;;7.05;;
78308;SDS011;67566;42.022;21.356;2023-04-25T08:40:42;11.60;;;8.60;;
78308;SDS011;67566;42.022;21.356;2023-04-25T08:43:09;15.07;;;8.15;;
78308;SDS011;67566;42.022;21.356;2023-04-25T08:45:41;8.40;;;5.63;;
78308;SDS011;67566;42.022;21.356;2023-04-25T08:48:07;6.18;;;5.20;;
78308;SDS011;67566;42.022;21.356;2023-04-25T08:50:39;5.93;;;4.32;;
78308;SDS011;67566;42.022;21.356;2023-04-25T08:53:08;8.48;;;5.40;;
78308;SDS011;67566;42.022;21.356;2023-04-25T08:55:38;8.43;;;5.25;;
78308;SDS011;67566;42.022;21.356;2023-04-25T08:58:06;9.02;;;5.65;;
78308;SDS011;67566;42.022;21.356;2023-04-25T09:00:32;8.52;;;5.97;;
78308;SDS011;67566;42.022;21.356;2023-04-25T09:02:58;11.80;;;5.78;;
78308;SDS011;67566;42.022;21.356;2023-04-25T09:05:24;7.90;;;6.22;;
78308;SDS011;67566;42.022;21.356;2023-04-25T09:07:50;9.02;;;6.90;;
78308;SDS011;67566;42.022;21.356;2023-04-25T09:10:15;10.30;;;5.80;;
78308;SDS011;67566;42.022;21.356;2023-04-25T09:12:41;8.45;;;6.72;;
78308;SDS011;67566;42.022;21.356;2023-04-25T09:15:10;7.05;;;5.47;;
78308;SDS011;67566;42.022;21.356;2023-04-25T09:17:38;7.45;;;5.88;;
78308;SDS011;67566;42.022;21.356;2023-04-25T09:20:10;10.00;;;5.90;;
78308;SDS011;67566;42.022;21.356;2023-04-25T09:22:37;7.88;;;5.40;;
78308;SDS011;67566;42.022;21.356;2023-04-25T09:25:07;9.82;;;5.97;;
78308;SDS011;67566;42.022;21.356;2023-04-25T09:27:36;7.70;;;4.85;;
78308;SDS011;67566;42.022;21.356;2023-04-25T09:30:16;8.15;;;5.43;;
78308;SDS011;67566;42.022;21.356;2023-04-25T09:32:42;9.35;;;6.22;;
78308;SDS011;67566;42.022;21.356;2023-04-25T09:35:08;7.60;;;4.88;;
78308;SDS011;67566;42.022;21.356;2023-04-25T09:37:34;6.57;;;5.13;;
78308;SDS011;67566;42.022;21.356;2023-04-25T09:40:00;9.15;;;4.88;;
78308;SDS011;67566;42.022;21.356;2023-04-25T09:42:31;8.52;;;4.65;;
78308;SDS011;67566;42.022;21.356;2023-04-25T09:44:57;5.85;;;4.88;;
78308;SDS011;67566;42.022;21.356;2023-04-25T09:47:25;11.88;;;6.93;;
78308;SDS011;67566;42.022;21.356;2023-04-25T09:49:52;11.85;;;8.10;;
78308;SDS011;67566;42.022;21.356;2023-04-25T09:52:19;10.70;;;8.23;;
78308;SDS011;67566;42.022;21.356;2023-04-25T09:54:46;10.57;;;7.07;;
78308;SDS011;67566;42.022;21.356;2023-04-25T09:57:14;7.43;;;4.78;;
78308;SDS011;67566;42.022;21.356;2023-04-25T09:59:42;3.95;;;3.00;;
78308;SDS011;67566;42.022;21.356;2023-04-25T10:02:13;7.68;;;3.55;;
78308;SDS011;67566;42.022;21.356;2023-04-25T10:04:48;4.72;;;2.75;;
78308;SDS011;67566;42.022;21.356;2023-04-25T10:07:18;4.97;;;2.28;;
78308;SDS011;67566;42.022;21.356;2023-04-25T10:09:45;9.98;;;6.40;;
78308;SDS011;67566;42.022;21.356;2023-04-25T10:12:13;10.07;;;5.20;;
78308;SDS011;67566;42.022;21.356;2023-04-25T10:14:39;7.18;;;3.08;;
78308;SDS011;67566;42.022;21.356;2023-04-25T10:17:05;3.55;;;2.55;;
78308;SDS011;67566;42.022;21.356;2023-04-25T10:19:31;8.20;;;3.88;;
78308;SDS011;67566;42.022;21.356;2023-04-25T10:22:07;3.63;;;2.30;;
78308;SDS011;67566;42.022;21.356;2023-04-25T10:24:38;5.68;;;2.53;;
78308;SDS011;67566;42.022;21.356;2023-04-25T10:27:05;5.85;;;2.70;;
78308;SDS011;67566;42.022;21.356;2023-04-25T10:29:32;4.68;;;2.47;;
78308;SDS011;67566;42.022;21.356;2023-04-25T10:31:57;2.95;;;2.00;;
78308;SDS011;67566;42.022;21.356;2023-04-25T10:34:24;2.92;;;2.08;;
78308;SDS011;67566;42.022;21.356;2023-04-25T10:37:03;2.70;;;1.60;;
78308;SDS011;67566;42.022;21.356;2023-04-25T10:39:29;3.75;;;2.10;;
78308;SDS011;67566;42.022;21.356;2023-04-25T10:41:58;5.97;;;1.45;;
78308;SDS011;67566;42.022;21.356;2023-04-25T10:44:27;2.85;;;1.35;;
78308;SDS011;67566;42.022;21.356;2023-04-25T10:46:57;3.28;;;1.50;;
78308;SDS011;67566;42.022;21.356;2023-04-25T10:52:18;3.42;;;1.40;;
78308;SDS011;67566;42.022;21.356;2023-04-25T10:54:56;2.15;;;1.25;;
78308;SDS011;67566;42.022;21.356;2023-04-25T10:57:41;2.10;;;1.30;;
78308;SDS011;67566;42.022;21.356;2023-04-25T11:00:18;4.53;;;1.10;;
78308;SDS011;67566;42.022;21.356;2023-04-25T11:02:57;2.53;;;1.40;;
78308;SDS011;67566;42.022;21.356;2023-04-25T11:07:57;5.32;;;2.10;;
78308;SDS011;67566;42.022;21.356;2023-04-25T11:10:31;3.33;;;1.50;;
78308;SDS011;67566;42.022;21.356;2023-04-25T11:12:58;4.07;;;1.75;;
78308;SDS011;67566;42.022;21.356;2023-04-25T11:15:25;4.18;;;1.40;;
78308;SDS011;67566;42.022;21.356;2023-04-25T11:17:51;1.98;;;1.42;;
78308;SDS011;67566;42.022;21.356;2023-04-25T11:20:17;3.53;;;1.33;;
78308;SDS011;67566;42.022;21.356;2023-04-25T11:22:44;3.05;;;1.05;;
78308;SDS011;67566;42.022;21.356;2023-04-25T11:25:11;2.75;;;1.30;;
78308;SDS011;67566;42.022;21.356;2023-04-25T11:27:59;3.58;;;1.58;;
78308;SDS011;67566;42.022;21.356;2023-04-25T11:30:26;2.25;;;1.45;;
78308;SDS011;67566;42.022;21.356;2023-04-25T11:32:52;3.65;;;1.50;;
78308;SDS011;67566;42.022;21.356;2023-04-25T11:35:18;4.60;;;1.63;;
78308;SDS011;67566;42.022;21.356;2023-04-25T11:37:45;2.33;;;1.20;;
78308;SDS011;67566;42.022;21.356;2023-04-25T11:40:10;5.47;;;1.70;;
78308;SDS011;67566;42.022;21.356;2023-04-25T11:42:41;5.57;;;1.80;;
78308;SDS011;67566;42.022;21.356;2023-04-25T11:45:09;3.05;;;1.10;;
78308;SDS011;67566;42.022;21.356;2023-04-25T11:47:36;5.20;;;1.98;;
78308;SDS011;67566;42.022;21.356;2023-04-25T11:50:02;1.38;;;0.90;;
78308;SDS011;67566;42.022;21.356;2023-04-25T11:52:46;2.28;;;1.00;;
78308;SDS011;67566;42.022;21.356;2023-04-25T11:55:13;2.22;;;1.20;;
78308;SDS011;67566;42.022;21.356;2023-04-25T11:57:41;1.58;;;1.13;;
78308;SDS011;67566;42.022;21.356;2023-04-25T12:00:08;2.00;;;1.30;;
78308;SDS011;67566;42.022;21.356;2023-04-25T12:02:45;2.28;;;1.10;;
78308;SDS011;67566;42.022;21.356;2023-04-25T12:05:13;2.03;;;1.30;;
78308;SDS011;67566;42.022;21.356;2023-04-25T12:07:42;1.52;;;1.00;;
78308;SDS011;67566;42.022;21.356;2023-04-25T12:10:09;2.30;;;0.73;;
78308;SDS011;67566;42.022;21.356;2023-04-25T12:12:36;1.83;;;1.02;;
78308;SDS011;67566;42.022;21.356;2023-04-25T12:15:15;1.77;;;0.80;;
78308;SDS011;67566;42.022;21.356;2023-04-25T12:17:44;1.83;;;1.17;;
78308;SDS011;67566;42.022;21.356;2023-04-25T12:20:15;4.57;;;1.50;;
78308;SDS011;67566;42.022;21.356;2023-04-25T12:22:42;2.25;;;1.20;;
78308;SDS011;67566;42.022;21.356;2023-04-25T12:25:13;1.88;;;1.30;;
78308;SDS011;67566;42.022;21.356;2023-04-25T12:30:58;1.60;;;1.10;;
78308;SDS011;67566;42.022;21.356;2023-04-25T12:33:32;2.75;;;1.42;;
78308;SDS011;67566;42.022;21.356;2023-04-25T12:36:02;1.73;;;1.00;;
78308;SDS011;67566;42.022;21.356;2023-04-25T12:38:35;4.00;;;1.00;;
78308;SDS011;67566;42.022;21.356;2023-04-25T12:41:02;4.30;;;1.30;;
78308;SDS011;67566;42.022;21.356;2023-04-25T12:43:28;2.60;;;1.52;;
78308;SDS011;67566;42.022;21.356;2023-04-25T12:45:54;1.63;;;0.93;;
78308;SDS011;67566;42.022;21.356;2023-04-25T12:48:20;4.25;;;1.10;;
78308;SDS011;67566;42.022;21.356;2023-04-25T12:50:47;3.55;;;1.40;;
78308;SDS011;67566;42.022;21.356;2023-04-25T12:53:17;2.63;;;1.17;;
78308;SDS011;67566;42.022;21.356;2023-04-25T12:55:44;3.15;;;1.30;;
78308;SDS011;67566;42.022;21.356;2023-04-25T12:58:11;3.42;;;1.15;;
78308;SDS011;67566;42.022;21.356;2023-04-25T13:00:38;3.33;;;1.30;;
78308;SDS011;67566;42.022;21.356;2023-04-25T13:03:03;2.83;;;1.20;;
78308;SDS011;67566;42.022;21.356;2023-04-25T13:05:29;2.45;;;1.27;;
78308;SDS011;67566;42.022;21.356;2023-04-25T13:07:55;1.92;;;1.02;;
78308;SDS011;67566;42.022;21.356;2023-04-25T13:10:21;2.15;;;1.02;;
78308;SDS011;67566;42.022;21.356;2023-04-25T13:12:47;1.80;;;1.20;;
78308;SDS011;67566;42.022;21.356;2023-04-25T13:15:12;3.22;;;1.33;;
78308;SDS011;67566;42.022;21.356;2023-04-25T13:17:38;1.85;;;0.93;;
78308;SDS011;67566;42.022;21.356;2023-04-25T13:20:06;3.25;;;1.27;;
78308;SDS011;67566;42.022;21.356;2023-04-25T13:22:37;2.83;;;1.63;;
78308;SDS011;67566;42.022;21.356;2023-04-25T13:25:04;3.17;;;1.58;;
78308;SDS011;67566;42.022;21.356;2023-04-25T13:27:30;3.58;;;1.50;;
78308;SDS011;67566;42.022;21.356;2023-04-25T13:29:58;2.97;;;1.42;;
78308;SDS011;67566;42.022;21.356;2023-04-25T13:32:23;2.53;;;0.90;;
78308;SDS011;67566;42.022;21.356;2023-04-25T13:34:50;1.65;;;1.05;;
78308;SDS011;67566;42.022;21.356;2023-04-25T13:37:17;1.98;;;1.30;;
78308;SDS011;67566;42.022;21.356;2023-04-25T13:39:43;2.72;;;1.42;;
78308;SDS011;67566;42.022;21.356;2023-04-25T13:42:08;2.42;;;1.25;;
78308;SDS011;67566;42.022;21.356;2023-04-25T13:44:34;3.10;;;0.90;;
78308;SDS011;67566;42.022;21.356;2023-04-25T13:46:59;3.92;;;1.50;;
78308;SDS011;67566;42.022;21.356;2023-04-25T13:49:25;2.28;;;1.25;;
78308;SDS011;67566;42.022;21.356;2023-04-25T13:51:51;1.85;;;1.30;;
78308;SDS011;67566;42.022;21.356;2023-04-25T13:54:17;6.80;;;1.88;;
78308;SDS011;67566;42.022;21.356;2023-04-25T13:56:42;1.75;;;1.40;;
78308;SDS011;67566;42.022;21.356;2023-04-25T13:59:08;2.95;;;1.35;;
78308;SDS011;67566;42.022;21.356;2023-04-25T14:01:33;2.45;;;1.30;;
78308;SDS011;67566;42.022;21.356;2023-04-25T14:04:00;4.65;;;1.08;;
78308;SDS011;67566;42.022;21.356;2023-04-25T14:06:29;2.00;;;1.60;;
78308;SDS011;67566;42.022;21.356;2023-04-25T14:08:55;2.15;;;1.48;;
78308;SDS011;67566;42.022;21.356;2023-04-25T14:11:21;2.28;;;1.35;;
78308;SDS011;67566;42.022;21.356;2023-04-25T14:13:47;1.60;;;1.13;;
78308;SDS011;67566;42.022;21.356;2023-04-25T14:16:14;5.32;;;1.85;;
78308;SDS011;67566;42.022;21.356;2023-04-25T14:18:40;1.85;;;1.33;;
78308;SDS011;67566;42.022;21.356;2023-04-25T14:21:06;3.55;;;1.48;;
78308;SDS011;67566;42.022;21.356;2023-04-25T14:23:31;4.65;;;1.50;;
78308;SDS011;67566;42.022;21.356;2023-04-25T14:25:57;2.92;;;1.30;;
78308;SDS011;67566;42.022;21.356;2023-04-25T14:28:22;3.08;;;1.70;;
78308;SDS011;67566;42.022;21.356;2023-04-25T14:30:48;3.65;;;1.50;;